createdAt,value
2023-03-22T00:01:48.059Z,101066.13
2023-03-22T00:06:50.486Z,101062.81
2023-03-22T00:11:53.084Z,101066.78
2023-03-22T00:16:55.814Z,101073.69
2023-03-22T00:21:58.245Z,101062.66
2023-03-22T00:27:01.270Z,101066.25
2023-03-22T00:32:04.745Z,101063.13
2023-03-22T00:37:08.368Z,101060.69
2023-03-22T00:42:11.119Z,101065.28
2023-03-22T00:47:14.375Z,101071.91
2023-03-22T00:52:16.913Z,101076.31
2023-03-22T00:57:19.522Z,101074.84
2023-03-22T01:02:29.891Z,101070.72
2023-03-22T01:07:32.827Z,101078.34
2023-03-22T01:12:39.420Z,101080.44
2023-03-22T01:17:42.142Z,101076.47
2023-03-22T01:22:44.767Z,101084.41
2023-03-22T01:27:47.451Z,101093.47
2023-03-22T01:32:49.792Z,101088.53
2023-03-22T01:37:53.192Z,101088.00
2023-03-22T01:42:56.469Z,101093.28
2023-03-22T01:48:03.581Z,101100.38
2023-03-22T01:53:13.959Z,101105.94
2023-03-22T01:58:18.399Z,101103.63
2023-03-22T02:03:43.728Z,101118.41
2023-03-22T02:08:50.032Z,101115.88
2023-03-22T02:14:09.394Z,101116.72
2023-03-22T02:20:10.598Z,101120.19
2023-03-22T02:25:39.316Z,101127.47
2023-03-22T02:31:09.300Z,101128.38
2023-03-22T02:36:31.906Z,101133.63
2023-03-22T02:41:34.161Z,101120.59
2023-03-22T02:47:04.416Z,101142.97
2023-03-22T02:52:24.379Z,101132.69
2023-03-22T02:57:49.726Z,101141.53
2023-03-22T03:02:57.847Z,101153.59
2023-03-22T03:08:03.568Z,101151.00
2023-03-22T03:13:13.503Z,101139.47
2023-03-22T03:18:44.981Z,101143.94
2023-03-22T03:24:00.568Z,101144.97
2023-03-22T03:29:19.983Z,101146.16
2023-03-22T03:34:42.412Z,101146.84
2023-03-22T03:39:56.857Z,101156.28
2023-03-22T03:45:00.528Z,101152.84
2023-03-22T03:50:05.134Z,101162.44
2023-03-22T03:55:08.317Z,101170.88
2023-03-22T04:00:14.776Z,101169.06
2023-03-22T04:05:28.657Z,101167.97
2023-03-22T04:10:31.906Z,101168.78
2023-03-22T04:15:34.957Z,101177.69
2023-03-22T04:20:42.216Z,101181.03
2023-03-22T04:25:50.983Z,101185.22
2023-03-22T04:31:04.853Z,101195.44
2023-03-22T04:36:31.391Z,101191.00
2023-03-22T04:42:00.124Z,101196.47
2023-03-22T04:47:03.800Z,101198.78
2023-03-22T04:52:09.415Z,101200.91
2023-03-22T04:57:13.169Z,101206.34
2023-03-22T05:02:20.861Z,101214.41
2023-03-22T05:07:24.948Z,101221.38
2023-03-22T05:12:32.252Z,101226.28
2023-03-22T05:17:49.799Z,101225.97
2023-03-22T05:22:57.282Z,101240.47
2023-03-22T05:28:03.804Z,101239.09
2023-03-22T05:33:23.103Z,101242.53
2023-03-22T05:38:30.977Z,101230.31
2023-03-22T05:43:36.205Z,101247.22
2023-03-22T05:48:40.931Z,101250.19
2023-03-22T05:53:48.340Z,101246.66
2023-03-22T05:58:54.966Z,101255.41
2023-03-22T06:03:58.447Z,101261.75
2023-03-22T06:09:16.251Z,101257.72
2023-03-22T06:14:19.965Z,101261.31
2023-03-22T06:19:34.627Z,101259.59
2023-03-22T06:24:41.145Z,101254.38
2023-03-22T06:29:51.135Z,101254.88
2023-03-22T06:34:58.552Z,101256.41
2023-03-22T06:40:01.117Z,101260.09
2023-03-22T06:45:06.708Z,101257.09
2023-03-22T06:50:12.639Z,101259.16
2023-03-22T06:55:36.496Z,101266.09
2023-03-22T07:00:47.791Z,101268.19
2023-03-22T07:05:52.145Z,101267.09
2023-03-22T07:10:54.971Z,101271.66
2023-03-22T07:16:03.029Z,101268.03
2023-03-22T07:21:16.022Z,101261.66
2023-03-22T07:26:23.323Z,101277.16
2023-03-22T07:31:26.334Z,101277.75
2023-03-22T07:36:35.626Z,101280.47
2023-03-22T07:41:38.289Z,101277.53
2023-03-22T07:46:56.525Z,101288.59
2023-03-22T07:52:06.791Z,101285.56
2023-03-22T07:57:09.659Z,101283.22
2023-03-22T08:02:18.258Z,101281.19
2023-03-22T08:07:28.043Z,101278.88
2023-03-22T08:12:32.050Z,101280.06
2023-03-22T08:17:42.625Z,101278.13
2023-03-22T08:22:51.392Z,101273.81
2023-03-22T08:28:17.351Z,101273.06
2023-03-22T08:33:22.284Z,101265.34
2023-03-22T08:38:24.943Z,101270.53
2023-03-22T08:43:29.359Z,101270.34
2023-03-22T08:48:32.234Z,101280.03
2023-03-22T08:53:43.683Z,101273.00
2023-03-22T08:59:15.621Z,101273.75
2023-03-22T09:04:36.564Z,101263.84
2023-03-22T09:09:39.294Z,101263.22
2023-03-22T09:14:42.691Z,101263.66
2023-03-22T09:19:48.041Z,101253.22
2023-03-22T09:24:50.744Z,101262.03
2023-03-22T09:29:53.519Z,101260.84
2023-03-22T09:34:56.128Z,101259.66
2023-03-22T09:40:01.281Z,101241.56
2023-03-22T09:45:09.050Z,101250.03
2023-03-22T09:50:32.449Z,101233.91
2023-03-22T09:55:57.847Z,101232.06
2023-03-22T10:01:18.509Z,101225.59
2023-03-22T10:06:26.043Z,101218.41
2023-03-22T10:11:31.118Z,101215.56
2023-03-22T10:16:35.876Z,101216.59
2023-03-22T10:21:38.689Z,101213.78
2023-03-22T10:26:42.331Z,101216.78
2023-03-22T10:31:46.362Z,101207.47
2023-03-22T10:36:52.072Z,101211.47
2023-03-22T10:42:01.593Z,101211.38
2023-03-22T10:47:09.370Z,101210.88
2023-03-22T10:52:39.812Z,101210.22
2023-03-22T10:57:46.846Z,101203.78
2023-03-22T11:03:00.381Z,101207.31
2023-03-22T11:08:03.752Z,101210.09
2023-03-22T11:13:09.750Z,101204.78
2023-03-22T11:18:16.036Z,101207.78
2023-03-22T11:23:21.440Z,101212.06
2023-03-22T11:28:34.541Z,101206.28
2023-03-22T11:33:38.045Z,101206.75
2023-03-22T11:38:44.872Z,101207.22
2023-03-22T11:43:54.080Z,101195.44
2023-03-22T11:49:06.170Z,101200.22
2023-03-22T11:54:23.599Z,101199.50
2023-03-22T11:59:40.248Z,101199.13
2023-03-22T12:04:45.172Z,101193.53
2023-03-22T12:09:58.372Z,101200.06
2023-03-22T12:15:08.921Z,101191.16
2023-03-22T12:20:28.137Z,101188.03
2023-03-22T12:25:35.003Z,101183.25
2023-03-22T12:30:45.320Z,101179.31
2023-03-22T12:35:51.831Z,101184.22
2023-03-22T12:40:58.026Z,101181.22
2023-03-22T12:46:04.966Z,101184.69
2023-03-22T12:51:14.883Z,101181.00
2023-03-22T12:56:21.538Z,101184.44
2023-03-22T13:01:47.861Z,101188.34
2023-03-22T13:06:53.837Z,101186.81
2023-03-22T13:12:18.025Z,101190.91
2023-03-22T13:17:23.528Z,101188.81
2023-03-22T13:22:30.757Z,101186.72
2023-03-22T13:27:38.731Z,101194.16
2023-03-22T13:32:53.221Z,101201.22
2023-03-22T13:38:07.934Z,101198.69
2023-03-22T13:43:34.121Z,101198.88
2023-03-22T13:48:48.996Z,101205.56
2023-03-22T13:53:57.359Z,101207.13
2023-03-22T13:59:00.902Z,101211.22
2023-03-22T14:04:11.602Z,101220.97
2023-03-22T14:09:25.571Z,101217.50
2023-03-22T14:14:37.034Z,101220.03
2023-03-22T14:19:42.358Z,101243.25
